createdAt,value
2023-03-02T00:02:22.562Z,5.43
2023-03-02T00:05:24.793Z,6.10
2023-03-02T00:08:28.748Z,5.43
2023-03-02T00:11:32.759Z,5.13
2023-03-02T00:14:35.049Z,4.97
2023-03-02T00:17:37.498Z,4.50
2023-03-02T00:20:39.711Z,5.30
2023-03-02T00:23:43.885Z,7.63
2023-03-02T00:26:46.181Z,7.90
2023-03-02T00:29:48.361Z,5.87
2023-03-02T00:32:50.666Z,4.63
2023-03-02T00:35:52.766Z,5.97
2023-03-02T00:38:57.608Z,5.10
2023-03-02T00:41:59.824Z,6.57
2023-03-02T00:45:02.157Z,6.67
2023-03-02T00:48:04.551Z,6.90
2023-03-02T00:51:10.555Z,4.80
2023-03-02T00:54:12.902Z,4.63
2023-03-02T00:57:15.029Z,6.23
2023-03-02T01:00:17.581Z,5.93
2023-03-02T01:03:19.965Z,5.97
2023-03-02T01:06:22.173Z,5.70
2023-03-02T01:09:25.451Z,6.93
2023-03-02T01:12:27.728Z,5.40
2023-03-02T01:15:29.905Z,6.20
2023-03-02T01:18:35.067Z,6.20
2023-03-02T01:21:37.413Z,5.70
2023-03-02T01:24:39.643Z,4.93
2023-03-02T01:27:41.857Z,5.27
2023-03-02T01:30:44.047Z,5.10
2023-03-02T01:33:46.281Z,4.97
2023-03-02T01:36:49.212Z,5.50
2023-03-02T01:39:51.544Z,5.07
2023-03-02T01:42:58.392Z,6.07
2023-03-02T01:46:28.536Z,5.53
2023-03-02T01:49:36.741Z,4.77
2023-03-02T01:52:39.479Z,5.77
2023-03-02T01:55:44.339Z,5.63
2023-03-02T01:58:51.134Z,6.57
2023-03-02T02:01:55.836Z,7.47
2023-03-02T02:04:58.516Z,7.25
2023-03-02T02:08:00.979Z,8.10
2023-03-02T02:11:03.222Z,5.30
2023-03-02T02:14:06.736Z,6.27
2023-03-02T02:17:09.336Z,6.37
2023-03-02T02:20:20.792Z,6.57
2023-03-02T02:23:36.487Z,6.30
2023-03-02T02:26:51.812Z,9.85
2023-03-02T02:29:54.578Z,7.10
2023-03-02T02:32:58.645Z,10.23
2023-03-02T02:36:07.358Z,5.70
2023-03-02T02:39:20.802Z,5.70
2023-03-02T02:42:33.600Z,6.93
2023-03-02T02:45:36.498Z,6.63
2023-03-02T02:48:40.138Z,6.20
2023-03-02T02:51:42.234Z,5.93
2023-03-02T02:54:50.123Z,6.40
2023-03-02T02:57:59.678Z,5.87
2023-03-02T03:01:03.702Z,6.67
2023-03-02T03:04:07.386Z,7.23
2023-03-02T03:07:13.770Z,6.57
2023-03-02T03:10:27.236Z,7.20
2023-03-02T03:13:29.388Z,6.43
2023-03-02T03:16:34.032Z,4.87
2023-03-02T03:19:36.545Z,6.13
2023-03-02T03:22:39.313Z,7.10
2023-03-02T03:25:42.455Z,6.40
2023-03-02T03:28:44.644Z,6.60
2023-03-02T03:31:46.924Z,5.90
2023-03-02T03:34:49.485Z,6.47
2023-03-02T03:37:52.674Z,6.57
2023-03-02T03:40:54.892Z,6.57
2023-03-02T03:43:57.164Z,6.40
2023-03-02T03:46:59.958Z,6.53
2023-03-02T03:50:02.297Z,6.73
2023-03-02T03:53:04.476Z,6.33
2023-03-02T03:56:07.507Z,6.47
2023-03-02T03:59:13.922Z,6.97
2023-03-02T04:02:16.085Z,6.63
2023-03-02T04:05:18.775Z,7.60
2023-03-02T04:08:22.637Z,7.35
2023-03-02T04:11:24.700Z,6.63
2023-03-02T04:14:30.600Z,6.93
2023-03-02T04:17:32.735Z,6.80
2023-03-02T04:20:34.931Z,5.93
2023-03-02T04:23:37.037Z,6.37
2023-03-02T04:26:41.421Z,7.77
2023-03-02T04:29:46.651Z,7.78
2023-03-02T04:32:48.972Z,6.47
2023-03-02T04:35:51.579Z,7.60
2023-03-02T04:38:53.900Z,6.43
2023-03-02T04:41:56.481Z,6.83
2023-03-02T04:44:58.680Z,6.60
2023-03-02T04:48:00.855Z,7.80
2023-03-02T04:51:03.139Z,7.07
2023-03-02T04:54:09.006Z,7.13
2023-03-02T04:57:11.129Z,6.53
2023-03-02T05:00:14.983Z,6.50
2023-03-02T05:03:17.157Z,6.67
2023-03-02T05:06:21.902Z,6.80
2023-03-02T05:09:28.857Z,5.78
2023-03-02T05:12:30.966Z,8.60
2023-03-02T05:15:47.826Z,6.87
2023-03-02T05:18:57.297Z,7.40
2023-03-02T05:21:59.731Z,7.00
2023-03-02T05:25:01.887Z,6.33
2023-03-02T05:28:05.594Z,7.70
2023-03-02T05:34:14.245Z,7.07
2023-03-02T05:37:17.280Z,6.43
2023-03-02T05:40:22.302Z,6.57
2023-03-02T05:46:27.113Z,6.60
2023-03-02T05:49:29.260Z,7.63
2023-03-02T05:52:31.363Z,6.63
2023-03-02T05:55:37.350Z,6.30
2023-03-02T05:58:39.614Z,7.93
2023-03-02T06:01:41.772Z,7.17
2023-03-02T06:04:44.002Z,7.40
2023-03-02T06:07:46.580Z,7.40
2023-03-02T06:10:50.966Z,8.37
2023-03-02T06:13:53.149Z,7.25
2023-03-02T06:16:55.401Z,7.03
2023-03-02T06:19:58.540Z,9.93
2023-03-02T06:23:01.680Z,9.07
2023-03-02T06:26:12.175Z,8.07
2023-03-02T06:29:14.457Z,8.03
2023-03-02T06:32:16.723Z,7.20
2023-03-02T06:35:19.299Z,7.40
2023-03-02T06:38:21.560Z,9.70
2023-03-02T06:41:23.817Z,8.63
2023-03-02T06:44:26.152Z,8.10
2023-03-02T06:47:28.373Z,8.83
2023-03-02T06:50:31.166Z,9.20
2023-03-02T06:53:33.491Z,7.60
2023-03-02T06:56:35.924Z,8.03
2023-03-02T06:59:38.193Z,8.13
2023-03-02T07:02:40.384Z,7.73
2023-03-02T07:05:44.516Z,8.63
2023-03-02T07:08:48.868Z,8.47
2023-03-02T07:11:51.352Z,8.87
2023-03-02T07:14:53.493Z,8.73
2023-03-02T07:17:55.671Z,8.33
2023-03-02T07:20:58.743Z,9.73
2023-03-02T07:24:00.966Z,7.97
2023-03-02T07:27:03.615Z,9.43
2023-03-02T07:30:07.148Z,8.80
2023-03-02T07:33:10.271Z,9.13
2023-03-02T07:36:12.561Z,7.87
2023-03-02T07:39:14.687Z,9.43
2023-03-02T07:42:17.714Z,8.40
2023-03-02T07:45:22.104Z,8.50
2023-03-02T07:48:24.476Z,9.98
2023-03-02T07:51:27.111Z,9.53
2023-03-02T07:54:30.647Z,8.63
2023-03-02T07:57:32.854Z,8.43
2023-03-02T08:00:36.880Z,7.40
2023-03-02T08:03:39.108Z,9.55
2023-03-02T08:06:42.596Z,8.87
2023-03-02T08:09:44.857Z,9.03
2023-03-02T08:12:46.997Z,9.33
2023-03-02T08:15:49.354Z,10.83
2023-03-02T08:18:52.485Z,8.90
2023-03-02T08:21:54.756Z,8.33
2023-03-02T08:24:57.648Z,8.13
2023-03-02T08:27:59.812Z,6.07
2023-03-02T08:31:03.197Z,7.55
2023-03-02T08:34:06.003Z,7.03
2023-03-02T08:37:08.243Z,5.68
2023-03-02T08:40:11.138Z,12.95
2023-03-02T08:43:13.331Z,7.22
2023-03-02T08:46:18.454Z,8.52
2023-03-02T08:49:21.618Z,9.13
2023-03-02T08:52:24.764Z,6.97
2023-03-02T08:55:27.057Z,7.10
2023-03-02T08:58:29.875Z,8.75
2023-03-02T09:01:34.786Z,6.95
2023-03-02T09:04:37.291Z,8.32
2023-03-02T09:07:39.739Z,5.45
2023-03-02T09:10:41.954Z,11.70
2023-03-02T09:13:45.250Z,9.68
2023-03-02T09:16:47.744Z,5.63
2023-03-02T09:19:50.134Z,5.13
2023-03-02T09:22:52.312Z,6.63
2023-03-02T09:25:55.211Z,7.53
2023-03-02T09:28:57.678Z,6.88
2023-03-02T09:32:01.052Z,7.40
2023-03-02T09:35:03.817Z,7.45
2023-03-02T09:38:06.054Z,9.35
2023-03-02T09:41:18.422Z,6.37
2023-03-02T09:44:44.791Z,8.07
2023-03-02T09:48:11.476Z,6.93
2023-03-02T09:51:33.838Z,6.50
2023-03-02T09:54:38.137Z,5.85
2023-03-02T09:57:40.910Z,5.90
2023-03-02T10:00:45.158Z,6.80
2023-03-02T10:10:40.904Z,7.05
2023-03-02T10:14:21.843Z,6.32
2023-03-02T10:17:44.404Z,6.60
2023-03-02T10:20:54.786Z,7.25
2023-03-02T10:24:02.581Z,6.85
2023-03-02T10:27:19.393Z,5.50
2023-03-02T10:30:21.664Z,6.40
2023-03-02T10:33:24.351Z,5.68
2023-03-02T10:36:31.790Z,5.43
2023-03-02T10:39:34.009Z,5.80
2023-03-02T10:42:40.811Z,6.35
2023-03-02T10:45:43.074Z,5.85
2023-03-02T10:48:51.097Z,5.78
2023-03-02T10:52:02.650Z,5.85
2023-03-02T10:55:15.863Z,4.78
2023-03-02T10:58:30.233Z,4.20
2023-03-02T11:01:32.691Z,5.80
2023-03-02T11:04:35.062Z,4.85
2023-03-02T11:07:37.324Z,5.13
2023-03-02T11:10:43.482Z,4.00
2023-03-02T11:13:45.758Z,3.15
2023-03-02T11:16:52.559Z,3.95
2023-03-02T11:19:55.013Z,5.38
2023-03-02T11:23:08.109Z,4.28
2023-03-02T11:26:23.808Z,4.40
2023-03-02T11:29:46.311Z,4.25
2023-03-02T11:33:02.199Z,4.28
2023-03-02T11:36:18.213Z,4.32
2023-03-02T11:39:32.266Z,3.83
2023-03-02T11:42:44.371Z,4.32
2023-03-02T11:46:00.881Z,3.30
2023-03-02T11:49:14.084Z,3.78
2023-03-02T11:52:20.882Z,4.05
2023-03-02T11:55:31.704Z,3.13
2023-03-02T11:58:34.760Z,4.07
2023-03-02T12:01:39.198Z,3.67
2023-03-02T12:04:43.587Z,3.80
2023-03-02T12:07:47.065Z,4.18
2023-03-02T12:11:16.604Z,5.45
2023-03-02T12:14:38.250Z,4.28
2023-03-02T12:17:40.517Z,4.50
2023-03-02T12:20:43.316Z,4.33
2023-03-02T12:23:52.195Z,4.15
2023-03-02T12:27:04.771Z,4.00
2023-03-02T12:30:28.397Z,6.10
2023-03-02T12:33:30.872Z,4.50
2023-03-02T12:36:42.252Z,4.27
2023-03-02T12:40:41.312Z,4.10
2023-03-02T12:44:04.769Z,4.50
2023-03-02T12:47:16.538Z,4.73
2023-03-02T12:50:25.984Z,3.77
2023-03-02T12:53:29.046Z,3.80
2023-03-02T12:56:31.364Z,4.07
2023-03-02T12:59:33.619Z,5.07
2023-03-02T13:02:37.123Z,5.00
2023-03-02T13:05:39.332Z,7.37
2023-03-02T13:08:45.649Z,3.27
2023-03-02T13:11:49.793Z,3.70
2023-03-02T13:14:55.528Z,2.92
2023-03-02T13:18:02.723Z,4.00
2023-03-02T13:21:05.834Z,3.07
2023-03-02T13:24:26.702Z,5.87
2023-03-02T13:27:30.284Z,5.37
2023-03-02T13:30:33.863Z,4.23
2023-03-02T13:33:47.681Z,5.10
2023-03-02T13:36:51.351Z,5.03
2023-03-02T13:40:02.616Z,4.67
2023-03-02T13:43:08.849Z,5.63
2023-03-02T13:46:13.963Z,5.23
2023-03-02T13:49:30.311Z,4.73
2023-03-02T13:52:35.463Z,4.43
2023-03-02T13:58:42.605Z,5.20
2023-03-02T14:01:44.892Z,4.77
2023-03-02T14:04:47.145Z,5.60
2023-03-02T14:07:49.526Z,3.93
2023-03-02T14:10:57.234Z,3.33
2023-03-02T14:13:59.956Z,3.57
2023-03-02T14:17:02.151Z,3.63
2023-03-02T14:20:04.443Z,5.73
2023-03-02T14:23:07.983Z,4.77
2023-03-02T14:26:32.684Z,6.33
2023-03-02T14:29:35.040Z,5.15
2023-03-02T14:32:37.238Z,5.37
2023-03-02T14:35:39.499Z,4.03
2023-03-02T14:38:41.851Z,5.10
2023-03-02T14:41:53.263Z,4.27
2023-03-02T14:44:56.192Z,4.83
2023-03-02T14:47:58.346Z,6.30
2023-03-02T14:51:04.239Z,3.87
2023-03-02T14:54:09.986Z,4.83
2023-03-02T14:57:25.343Z,5.07
2023-03-02T15:00:27.924Z,4.17
2023-03-02T15:03:30.291Z,4.23
2023-03-02T15:06:37.792Z,4.87
2023-03-02T15:09:41.129Z,5.00
2023-03-02T15:12:43.821Z,3.93
2023-03-02T15:15:47.239Z,3.47
2023-03-02T15:18:50.689Z,5.03
2023-03-02T15:21:53.061Z,4.80
2023-03-02T15:24:55.689Z,2.50
2023-03-02T15:27:58.083Z,3.83
2023-03-02T15:31:08.607Z,3.27
2023-03-02T15:34:11.775Z,4.37
2023-03-02T15:37:14.367Z,3.60
2023-03-02T15:40:16.739Z,3.00
2023-03-02T15:43:19.029Z,3.23
2023-03-02T15:46:22.514Z,3.37
2023-03-02T15:49:27.771Z,3.50
2023-03-02T15:52:30.012Z,3.60
2023-03-02T15:55:32.358Z,2.80
2023-03-02T15:58:35.637Z,3.73
2023-03-02T16:01:37.846Z,2.97
2023-03-02T16:04:40.920Z,3.03
2023-03-02T16:07:43.433Z,3.50
2023-03-02T16:11:02.833Z,2.97
2023-03-02T16:14:08.467Z,3.53
2023-03-02T16:17:14.221Z,3.37
2023-03-02T16:20:16.465Z,3.60
2023-03-02T16:23:18.695Z,2.93
2023-03-02T16:26:22.446Z,2.57
2023-03-02T16:29:24.703Z,4.37
2023-03-02T16:32:27.907Z,3.57
2023-03-02T16:35:31.757Z,2.80
2023-03-02T16:38:34.393Z,3.90
2023-03-02T16:41:37.587Z,5.23
2023-03-02T16:44:39.731Z,6.63
2023-03-02T16:47:41.979Z,4.50
2023-03-02T16:50:44.617Z,4.67
2023-03-02T16:53:48.138Z,4.23
2023-03-02T16:56:50.311Z,5.37
2023-03-02T16:59:52.488Z,5.93
2023-03-02T17:02:54.697Z,4.30
2023-03-02T17:05:57.108Z,5.50
2023-03-02T17:08:59.255Z,4.83
2023-03-02T17:12:01.461Z,4.83
2023-03-02T17:15:03.936Z,4.40
2023-03-02T17:18:06.115Z,4.17
2023-03-02T17:21:08.658Z,5.30
2023-03-02T17:24:10.864Z,5.47
2023-03-02T17:27:24.554Z,5.50
2023-03-02T17:30:27.561Z,5.00
2023-03-02T17:33:30.287Z,6.97
2023-03-02T17:36:36.842Z,5.80
2023-03-02T17:39:39.174Z,4.97
2023-03-02T17:42:41.355Z,5.10
2023-03-02T17:45:43.670Z,5.97
2023-03-02T17:48:49.482Z,6.20
2023-03-02T17:51:51.624Z,6.27
2023-03-02T17:54:54.469Z,11.20
2023-03-02T17:57:56.600Z,4.93
2023-03-02T18:00:59.029Z,4.90
2023-03-02T18:04:01.317Z,4.27
2023-03-02T18:07:05.715Z,4.38
2023-03-02T18:10:08.562Z,4.37
2023-03-02T18:13:10.867Z,6.13
2023-03-02T18:16:13.121Z,4.73
2023-03-02T18:19:17.073Z,5.07
2023-03-02T18:22:22.150Z,4.60
2023-03-02T18:25:25.034Z,6.27
2023-03-02T18:28:27.336Z,4.70
2023-03-02T18:31:31.651Z,3.87
2023-03-02T18:34:34.025Z,5.18
2023-03-02T18:37:36.537Z,4.50
2023-03-02T18:40:38.806Z,5.07
2023-03-02T18:43:43.267Z,4.70
2023-03-02T18:46:45.738Z,4.45
2023-03-02T18:49:48.402Z,3.93
2023-03-02T18:52:51.403Z,4.47
2023-03-02T18:55:56.836Z,4.63
2023-03-02T18:58:59.208Z,5.00
2023-03-02T19:02:03.623Z,4.93
2023-03-02T19:05:08.727Z,4.72
2023-03-02T19:08:11.807Z,3.73
2023-03-02T19:11:15.132Z,3.77
2023-03-02T19:14:17.282Z,4.17
2023-03-02T19:17:19.594Z,6.47
2023-03-02T19:20:22.316Z,4.43
2023-03-02T19:23:24.525Z,4.57
2023-03-02T19:26:29.317Z,4.63
2023-03-02T19:29:31.453Z,4.30
2023-03-02T19:32:33.808Z,4.73
2023-03-02T19:35:37.908Z,6.43
2023-03-02T19:38:44.666Z,5.88
2023-03-02T19:41:46.923Z,5.33
2023-03-02T19:44:49.057Z,4.77
2023-03-02T19:47:51.331Z,5.33
2023-03-02T19:50:53.497Z,4.67
2023-03-02T19:53:55.908Z,5.20
2023-03-02T19:56:58.460Z,5.17
2023-03-02T20:00:00.702Z,5.37
2023-03-02T20:03:03.337Z,5.40
2023-03-02T20:06:05.722Z,5.83
2023-03-02T20:09:08.481Z,6.30
2023-03-02T20:12:12.217Z,5.47
2023-03-02T20:15:14.355Z,5.40
2023-03-02T20:18:19.142Z,6.90
2023-03-02T20:21:21.495Z,8.23
2023-03-02T20:24:23.794Z,6.70
2023-03-02T20:27:27.517Z,5.77
2023-03-02T20:30:36.727Z,6.23
2023-03-02T20:33:46.730Z,5.87
2023-03-02T20:36:50.103Z,7.70
2023-03-02T20:39:53.436Z,13.13
2023-03-02T20:42:56.754Z,14.50
2023-03-02T20:46:00.160Z,7.80
2023-03-02T20:49:02.805Z,7.33
2023-03-02T20:52:06.898Z,9.03
2023-03-02T20:55:10.358Z,8.32
2023-03-02T20:58:13.243Z,7.20
2023-03-02T21:01:17.159Z,8.20
2023-03-02T21:04:19.915Z,7.70
2023-03-02T21:07:22.233Z,10.40
2023-03-02T21:10:31.858Z,8.73
2023-03-02T21:13:34.128Z,8.07
2023-03-02T21:16:39.363Z,9.13
2023-03-02T21:19:41.754Z,8.53
2023-03-02T21:22:46.500Z,7.97
2023-03-02T21:25:48.743Z,8.63
2023-03-02T21:28:50.878Z,7.97
2023-03-02T21:31:53.964Z,8.20
2023-03-02T21:34:56.115Z,7.87
2023-03-02T21:38:04.921Z,8.57
2023-03-02T21:41:08.376Z,8.90
2023-03-02T21:44:10.609Z,9.60
2023-03-02T21:47:12.754Z,9.10
2023-03-02T21:50:27.181Z,10.20
2023-03-02T21:53:32.054Z,13.55
2023-03-02T21:59:37.478Z,9.07
2023-03-02T22:02:44.542Z,8.77
2023-03-02T22:05:46.872Z,7.63
2023-03-02T22:08:49.869Z,8.80
2023-03-02T22:11:53.016Z,8.90
2023-03-02T22:14:55.322Z,7.30
2023-03-02T22:17:59.881Z,8.77
2023-03-02T22:21:43.161Z,9.80
2023-03-02T22:24:54.841Z,9.10
2023-03-02T22:27:57.238Z,8.97
2023-03-02T22:31:01.331Z,7.73
2023-03-02T22:34:10.091Z,7.43
2023-03-02T22:37:20.540Z,7.50
2023-03-02T22:40:35.093Z,10.13
2023-03-02T22:43:37.405Z,10.63
2023-03-02T22:46:40.282Z,9.43
2023-03-02T22:49:42.695Z,9.70
2023-03-02T22:52:45.527Z,9.00
2023-03-02T22:55:48.282Z,8.73
2023-03-02T22:58:51.656Z,10.80
2023-03-02T23:02:00.120Z,9.90
2023-03-02T23:05:02.618Z,11.27
2023-03-02T23:08:36.249Z,10.25
2023-03-02T23:11:41.383Z,10.00
2023-03-02T23:14:51.384Z,11.13
2023-03-02T23:17:55.902Z,9.57
2023-03-02T23:20:59.621Z,11.27
2023-03-02T23:24:02.722Z,11.80
2023-03-02T23:27:04.878Z,11.87
2023-03-02T23:30:09.767Z,12.13
2023-03-02T23:36:14.683Z,12.90
2023-03-02T23:39:19.397Z,9.93
2023-03-02T23:42:21.580Z,10.17
2023-03-02T23:45:23.730Z,8.87
2023-03-02T23:48:25.942Z,8.77
2023-03-02T23:51:28.325Z,10.00
2023-03-02T23:54:30.543Z,10.23
2023-03-02T23:57:32.832Z,14.17
